Time,TemperatureF,DewpointF,PressureIn,WindDirection,WindDirectionDegrees,WindSpeedMPH,WindSpeedGustMPH,Humidity,HourlyPrecipIn,Conditions,Clouds,dailyrainin,SoftwareType,DateUTC
2013-01-07 00:02:00,46.8,45.4,30.39,WNW,285,1.1,0.0,95,0.00,CLR,,0.01,WeatherDisplay:10.37,2013-01-07 00:02:00,
2013-01-07 00:07:00,46.7,45.3,30.39,East,89,0.0,0.0,95,0.00,RA,,0.00,WeatherDisplay:10.37,2013-01-07 00:07:00,
2013-01-07 00:12:00,46.7,45.3,30.39,East,89,0.0,0.0,95,0.00,RA,,0.00,WeatherDisplay:10.37,2013-01-07 00:12:00,
2013-01-07 00:17:00,46.7,45.3,30.39,East,101,0.0,0.0,95,0.00,CLR,,0.00,WeatherDisplay:10.37,2013-01-07 00:17:00,
2013-01-07 00:22:00,46.7,45.3,30.39,East,100,0.0,0.0,95,0.00,CLR,,0.00,WeatherDisplay:10.37,2013-01-07 00:22:00,
2013-01-07 00:27:00,46.7,45.3,30.39,ESE,123,1.1,1.1,95,0.00,CLR,,0.00,WeatherDisplay:10.37,2013-01-07 00:27:00,
2013-01-07 00:32:00,46.6,45.2,30.39,East,91,0.0,0.0,95,0.00,CLR,,0.00,WeatherDisplay:10.37,2013-01-07 00:32:00,
2013-01-07 00:37:00,46.6,45.2,30.38,ESE,103,1.1,1.1,95,0.00,CLR,,0.00,WeatherDisplay:10.37,2013-01-07 00:37:00,
2013-01-07 00:42:00,46.6,45.2,30.38,SE,128,0.0,0.0,95,0.00,CLR,,0.00,WeatherDisplay:10.37,2013-01-07 00:42:00,
2013-01-07 00:47:00,46.6,45.2,30.38,NE,50,0.0,0.0,95,0.00,CLR,,0.00,WeatherDisplay:10.37,2013-01-07 00:47:00,
2013-01-07 00:52:00,46.5,45.1,30.38,NW,321,0.0,0.0,95,0.00,CLR,,0.00,WeatherDisplay:10.37,2013-01-07 00:52:00,
2013-01-07 00:57:00,46.4,45.0,30.38,SE,136,1.1,1.1,95,0.00,CLR,,0.00,WeatherDisplay:10.37,2013-01-07 00:57:00,
2013-01-07 01:02:00,46.4,45.0,30.38,WNW,287,0.0,0.0,95,0.00,CLR,,0.00,WeatherDisplay:10.37,2013-01-07 01:02:00,
2013-01-07 01:07:00,46.3,44.9,30.38,SSW,205,1.1,0.0,95,0.00,CLR,,0.00,WeatherDisplay:10.37,2013-01-07 01:07:00,
2013-01-07 01:12:00,46.2,44.8,30.38,NNW,337,1.1,1.1,95,0.00,CLR,,0.00,WeatherDisplay:10.37,2013-01-07 01:12:00,
2013-01-07 01:17:00,46.2,45.1,30.38,North,350,0.0,0.0,96,0.00,CLR,,0.00,WeatherDisplay:10.37,2013-01-07 01:17:00,
2013-01-07 01:22:00,46.1,45.0,30.38,NE,51,0.0,0.0,96,0.00,CLR,,0.00,WeatherDisplay:10.37,2013-01-07 01:22:00,
2013-01-07 01:27:00,46.1,45.0,30.38,South,186,0.0,0.0,96,0.00,CLR,,0.00,WeatherDisplay:10.37,2013-01-07 01:27:00,
2013-01-07 01:32:00,46.0,44.9,30.38,SW,214,0.0,0.0,96,0.00,CLR,,0.00,WeatherDisplay:10.37,2013-01-07 01:32:00,
2013-01-07 01:37:00,46.0,44.9,30.38,SW,226,0.0,0.0,96,0.00,CLR,,0.00,WeatherDisplay:10.37,2013-01-07 01:37:00,
2013-01-07 01:42:00,45.9,44.8,30.38,ESE,107,0.0,0.0,96,0.00,CLR,,0.00,WeatherDisplay:10.37,2013-01-07 01:42:00,
2013-01-07 01:47:00,45.9,44.8,30.38,North,349,0.0,0.0,96,0.00,CLR,,0.00,WeatherDisplay:10.37,2013-01-07 01:47:00,
2013-01-07 01:52:00,45.9,44.8,30.38,North,349,0.0,0.0,96,0.00,CLR,,0.00,WeatherDisplay:10.37,2013-01-07 01:52:00,
2013-01-07 01:57:00,45.8,44.7,30.38,North,349,0.0,0.0,96,0.00,CLR,,0.00,WeatherDisplay:10.37,2013-01-07 01:57:00,
2013-01-07 02:02:00,45.8,44.7,30.38,ESE,103,0.0,0.0,96,0.00,CLR,,0.00,WeatherDisplay:10.37,2013-01-07 02:02:00,
2013-01-07 02:07:00,45.7,44.9,30.37,ESE,103,0.0,0.0,97,0.00,CLR,,0.00,WeatherDisplay:10.37,2013-01-07 02:07:00,
2013-01-07 02:12:00,45.7,44.9,30.37,ESE,103,0.0,0.0,97,0.00,CLR,,0.00,WeatherDisplay:10.37,2013-01-07 02:12:00,
2013-01-07 02:17:00,45.7,44.9,30.37,ESE,105,0.0,0.0,97,0.00,CLR,,0.00,WeatherDisplay:10.37,2013-01-07 02:17:00,
2013-01-07 02:22:00,45.7,44.9,30.37,East,93,0.0,0.0,97,0.00,CLR,,0.00,WeatherDisplay:10.37,2013-01-07 02:22:00,
2013-01-07 02:27:00,45.6,44.8,30.37,NNE,30,0.0,0.0,97,0.00,CLR,,0.00,WeatherDisplay:10.37,2013-01-07 02:27:00,
2013-01-07 02:32:00,45.5,44.7,30.37,NW,319,0.0,0.0,97,0.00,CLR,,0.00,WeatherDisplay:10.37,2013-01-07 02:32:00,
2013-01-07 02:37:00,45.5,44.7,30.37,NW,319,0.0,0.0,97,0.00,CLR,,0.00,WeatherDisplay:10.37,2013-01-07 02:37:00,
2013-01-07 02:42:00,45.5,44.7,30.36,NW,311,0.0,0.0,97,0.00,CLR,,0.00,WeatherDisplay:10.37,2013-01-07 02:42:00,
2013-01-07 02:47:00,45.5,44.7,30.37,NW,304,0.0,0.0,97,0.00,CLR,,0.00,WeatherDisplay:10.37,2013-01-07 02:47:00,
2013-01-07 02:52:00,45.3,44.5,30.37,NW,311,0.0,0.0,97,0.00,CLR,,0.00,WeatherDisplay:10.37,2013-01-07 02:52:00,
2013-01-07 02:57:00,45.3,44.5,30.36,NW,311,0.0,0.0,97,0.00,CLR,,0.00,WeatherDisplay:10.37,2013-01-07 02:57:00,
2013-01-07 03:02:00,45.3,44.5,30.36,NE,45,1.1,0.0,97,0.00,CLR,,0.00,WeatherDisplay:10.37,2013-01-07 03:02:00,
2013-01-07 03:07:00,45.2,44.4,30.36,WNW,294,1.1,1.1,97,0.00,CLR,,0.00,WeatherDisplay:10.37,2013-01-07 03:07:00,
2013-01-07 03:12:00,45.2,44.4,30.37,SE,125,0.0,0.0,97,0.00,CLR,,0.00,WeatherDisplay:10.37,2013-01-07 03:12:00,
2013-01-07 03:17:00,45.2,44.4,30.36,East,83,1.1,1.1,97,0.00,CLR,,0.00,WeatherDisplay:10.37,2013-01-07 03:17:00,
2013-01-07 03:22:00,45.2,44.4,30.37,WSW,253,0.0,0.0,97,0.00,CLR,,0.00,WeatherDisplay:10.37,2013-01-07 03:22:00,
2013-01-07 03:27:00,45.1,44.3,30.37,WNW,297,1.1,1.1,97,0.00,CLR,,0.00,WeatherDisplay:10.37,2013-01-07 03:27:00,
2013-01-07 03:32:00,45.0,44.2,30.37,WSW,242,1.1,1.1,97,0.00,CLR,,0.00,WeatherDisplay:10.37,2013-01-07 03:32:00,
2013-01-07 03:37:00,45.0,44.2,30.37,West,266,2.3,2.3,97,0.00,CLR,,0.00,WeatherDisplay:10.37,2013-01-07 03:37:00,
2013-01-07 03:42:00,44.9,44.1,30.36,WNW,299,2.3,2.3,97,0.00,CLR,,0.00,WeatherDisplay:10.37,2013-01-07 03:42:00,
2013-01-07 03:47:00,44.8,44.0,30.36,WNW,290,1.1,0.0,97,0.00,CLR,,0.00,WeatherDisplay:10.37,2013-01-07 03:47:00,
2013-01-07 03:52:00,44.8,44.0,30.36,NW,315,1.1,1.1,97,0.00,CLR,,0.00,WeatherDisplay:10.37,2013-01-07 03:52:00,
2013-01-07 03:57:00,44.7,43.9,30.36,NW,315,0.0,0.0,97,0.00,CLR,,0.00,WeatherDisplay:10.37,2013-01-07 03:57:00,
2013-01-07 04:02:00,44.7,43.9,30.35,NW,319,0.0,0.0,97,0.00,CLR,,0.00,WeatherDisplay:10.37,2013-01-07 04:02:00,
2013-01-07 04:07:00,44.7,43.9,30.35,NW,319,0.0,0.0,97,0.00,CLR,,0.00,WeatherDisplay:10.37,2013-01-07 04:07:00,
2013-01-07 04:12:00,44.6,43.8,30.35,NW,319,0.0,0.0,97,0.00,CLR,,0.00,WeatherDisplay:10.37,2013-01-07 04:12:00,
2013-01-07 04:17:00,44.6,43.8,30.35,NW,319,0.0,0.0,97,0.00,CLR,,0.00,WeatherDisplay:10.37,2013-01-07 04:17:00,
2013-01-07 04:22:00,44.6,43.8,30.34,SE,138,0.0,0.0,97,0.00,CLR,,0.00,WeatherDisplay:10.37,2013-01-07 04:22:00,
2013-01-07 04:27:00,44.7,43.9,30.34,East,82,0.0,0.0,97,0.00,CLR,,0.00,WeatherDisplay:10.37,2013-01-07 04:27:00,
2013-01-07 04:32:00,44.6,43.8,30.34,NNE,20,1.1,0.0,97,0.00,CLR,,0.00,WeatherDisplay:10.37,2013-01-07 04:32:00,
2013-01-07 04:37:00,44.6,43.8,30.34,NNE,20,0.0,0.0,97,0.00,CLR,,0.00,WeatherDisplay:10.37,2013-01-07 04:37:00,
2013-01-07 04:42:00,44.6,43.8,30.34,ESE,103,0.0,0.0,97,0.00,CLR,,0.00,WeatherDisplay:10.37,2013-01-07 04:42:00,
2013-01-07 04:47:00,44.6,43.8,30.34,ESE,103,0.0,0.0,97,0.00,CLR,,0.00,WeatherDisplay:10.37,2013-01-07 04:47:00,
2013-01-07 04:52:00,44.6,43.8,30.34,East,89,0.0,0.0,97,0.00,CLR,,0.00,WeatherDisplay:10.37,2013-01-07 04:52:00,
2013-01-07 04:57:00,44.6,43.5,30.34,East,87,0.0,0.0,96,0.00,CLR,,0.00,WeatherDisplay:10.37,2013-01-07 04:57:00,
2013-01-07 05:00:00,44.6,43.5,30.34,East,87,0.0,0.0,96,0.00,CLR,,0.00,WeatherDisplay:10.37,2013-01-07 05:00:00,
2013-01-07 05:01:00,44.6,43.5,30.34,East,87,0.0,0.0,96,0.00,CLR,,0.00,WeatherDisplay:10.37,2013-01-07 05:01:00,
2013-01-07 05:02:00,44.6,43.5,30.34,East,87,0.0,0.0,96,0.00,CLR,,0.00,WeatherDisplay:10.37,2013-01-07 05:02:00,
2013-01-07 05:07:00,44.6,43.5,30.33,East,87,0.0,0.0,96,0.00,CLR,,0.00,WeatherDisplay:10.37,2013-01-07 05:07:00,
2013-01-07 05:12:00,44.7,43.6,30.33,East,87,0.0,0.0,96,0.00,CLR,,0.00,WeatherDisplay:10.37,2013-01-07 05:12:00,
2013-01-07 05:17:00,44.8,43.5,30.33,East,98,1.0,1.0,95,0.00,CLR,,0.00,WeatherDisplay:10.37,2013-01-07 05:17:00,
2013-01-07 05:22:00,44.8,43.5,30.33,East,87,0.0,0.0,95,0.00,CLR,,0.00,WeatherDisplay:10.37,2013-01-07 05:22:00,
2013-01-07 05:27:00,44.8,43.5,30.33,East,89,0.0,0.0,95,0.00,CLR,,0.00,WeatherDisplay:10.37,2013-01-07 05:27:00,
2013-01-07 05:32:00,44.8,43.5,30.33,East,87,0.0,0.0,95,0.00,CLR,,0.00,WeatherDisplay:10.37,2013-01-07 05:32:00,
2013-01-07 05:37:00,44.9,43.6,30.33,WSW,242,1.1,0.0,95,0.00,CLR,,0.00,WeatherDisplay:10.37,2013-01-07 05:37:00,
2013-01-07 05:42:00,44.9,43.6,30.33,ENE,68,0.0,0.0,95,0.00,CLR,,0.00,WeatherDisplay:10.37,2013-01-07 05:42:00,
2013-01-07 05:47:00,44.9,43.6,30.33,NNE,27,1.1,0.0,95,0.00,CLR,,0.00,WeatherDisplay:10.37,2013-01-07 05:47:00,
2013-01-07 05:52:00,44.9,43.6,30.33,NE,44,0.0,0.0,95,0.00,CLR,,0.00,WeatherDisplay:10.37,2013-01-07 05:52:00,
2013-01-07 05:57:00,44.9,43.6,30.33,NE,43,0.0,0.0,95,0.00,CLR,,0.00,WeatherDisplay:10.37,2013-01-07 05:57:00,
2013-01-07 06:02:00,44.9,43.6,30.33,NE,43,0.0,0.0,95,0.00,CLR,,0.00,WeatherDisplay:10.37,2013-01-07 06:02:00,
2013-01-07 06:07:00,44.9,43.6,30.33,ESE,103,0.0,0.0,95,0.00,CLR,,0.00,WeatherDisplay:10.37,2013-01-07 06:07:00,
2013-01-07 06:12:00,44.9,43.6,30.33,ESE,102,0.0,0.0,95,0.00,CLR,,0.00,WeatherDisplay:10.37,2013-01-07 06:12:00,
2013-01-07 06:17:00,44.9,43.6,30.33,ESE,103,0.0,0.0,95,0.00,CLR,,0.00,WeatherDisplay:10.37,2013-01-07 06:17:00,
2013-01-07 06:22:00,44.9,43.6,30.32,East,97,1.1,1.1,95,0.00,CLR,,0.00,WeatherDisplay:10.37,2013-01-07 06:22:00,
2013-01-07 06:27:00,44.9,43.6,30.33,ENE,74,0.0,0.0,95,0.00,CLR,,0.00,WeatherDisplay:10.37,2013-01-07 06:27:00,
2013-01-07 06:32:00,44.9,43.6,30.33,ENE,68,0.0,0.0,95,0.00,CLR,,0.00,WeatherDisplay:10.37,2013-01-07 06:32:00,
2013-01-07 06:37:00,44.9,43.6,30.32,East,92,1.1,1.1,95,0.00,CLR,,0.00,WeatherDisplay:10.37,2013-01-07 06:37:00,
2013-01-07 06:42:00,45.0,43.7,30.32,East,101,0.0,0.0,95,0.00,CLR,,0.00,WeatherDisplay:10.37,2013-01-07 06:42:00,
2013-01-07 06:47:00,45.0,43.7,30.32,ESE,102,0.0,0.0,95,0.00,CLR,,0.00,WeatherDisplay:10.37,2013-01-07 06:47:00,
2013-01-07 06:52:00,44.9,43.6,30.32,NW,316,0.0,0.0,95,0.00,CLR,,0.00,WeatherDisplay:10.37,2013-01-07 06:52:00,
2013-01-07 06:57:00,45.0,43.7,30.33,NW,316,0.0,0.0,95,0.00,CLR,,0.00,WeatherDisplay:10.37,2013-01-07 06:57:00,
2013-01-07 07:02:00,45.0,43.7,30.33,East,84,0.0,0.0,95,0.00,CLR,,0.00,WeatherDisplay:10.37,2013-01-07 07:02:00,
2013-01-07 07:07:00,44.9,43.6,30.33,NW,321,0.0,0.0,95,0.00,CLR,,0.00,WeatherDisplay:10.37,2013-01-07 07:07:00,
2013-01-07 07:12:00,45.0,43.7,30.33,NNW,333,0.0,0.0,95,0.00,CLR,,0.00,WeatherDisplay:10.37,2013-01-07 07:12:00,
2013-01-07 07:17:00,44.9,43.8,30.33,NNW,333,0.0,0.0,96,0.00,CLR,,0.00,WeatherDisplay:10.37,2013-01-07 07:17:00,
2013-01-07 07:22:00,44.9,43.8,30.33,NNW,330,1.1,0.0,96,0.00,CLR,,0.00,WeatherDisplay:10.37,2013-01-07 07:22:00,
2013-01-07 07:27:00,44.9,43.8,30.33,North,352,0.0,0.0,96,0.00,CLR,,0.00,WeatherDisplay:10.37,2013-01-07 07:27:00,
2013-01-07 07:32:00,44.9,43.8,30.33,North,357,0.0,0.0,96,0.00,CLR,,0.00,WeatherDisplay:10.37,2013-01-07 07:32:00,
2013-01-07 07:37:00,44.9,43.8,30.33,ENE,77,0.0,0.0,96,0.00,CLR,,0.00,WeatherDisplay:10.37,2013-01-07 07:37:00,
2013-01-07 07:42:00,44.9,43.8,30.33,ENE,77,0.0,0.0,96,0.00,CLR,,0.00,WeatherDisplay:10.37,2013-01-07 07:42:00,
2013-01-07 07:47:00,45.0,43.9,30.33,ESE,110,1.1,0.0,96,0.00,CLR,,0.00,WeatherDisplay:10.37,2013-01-07 07:47:00,
2013-01-07 07:52:00,44.9,43.8,30.33,ESE,107,0.0,0.0,96,0.00,CLR,,0.00,WeatherDisplay:10.37,2013-01-07 07:52:00,
2013-01-07 07:57:00,44.9,43.8,30.33,ESE,107,0.0,0.0,96,0.00,CLR,,0.00,WeatherDisplay:10.37,2013-01-07 07:57:00,
2013-01-07 08:02:00,44.9,43.8,30.33,ESE,108,0.0,0.0,96,0.00,CLR,,0.00,WeatherDisplay:10.37,2013-01-07 08:02:00,
2013-01-07 08:07:00,44.9,43.8,30.33,ESE,108,0.0,0.0,96,0.00,CLR,,0.00,WeatherDisplay:10.37,2013-01-07 08:07:00,
2013-01-07 08:12:00,44.9,43.8,30.33,ESE,108,0.0,0.0,96,0.00,CLR,,0.00,WeatherDisplay:10.37,2013-01-07 08:12:00,
2013-01-07 08:17:00,44.9,43.8,30.33,ESE,108,0.0,0.1,96,0.00,CLR,,0.00,WeatherDisplay:10.37,2013-01-07 08:17:00,
2013-01-07 08:22:00,44.9,43.8,30.33,ESE,108,0.0,0.0,96,0.00,CLR,,0.00,WeatherDisplay:10.37,2013-01-07 08:22:00,
2013-01-07 08:27:00,44.9,43.8,30.33,ESE,108,1.1,0.0,96,0.00,CLR,,0.00,WeatherDisplay:10.37,2013-01-07 08:27:00,
2013-01-07 08:32:00,44.9,43.8,30.33,ESE,108,0.0,0.0,96,0.00,CLR,,0.00,WeatherDisplay:10.37,2013-01-07 08:32:00,
2013-01-07 08:37:00,45.0,43.9,30.33,East,91,0.0,0.0,96,0.00,CLR,,0.00,WeatherDisplay:10.37,2013-01-07 08:37:00,
2013-01-07 08:42:00,45.0,43.9,30.33,SE,125,0.0,0.0,96,0.00,CLR,,0.00,WeatherDisplay:10.37,2013-01-07 08:42:00,
2013-01-07 08:47:00,45.1,44.0,30.33,SE,125,0.0,0.0,96,0.00,CLR,,0.00,WeatherDisplay:10.37,2013-01-07 08:47:00,
2013-01-07 08:52:00,45.1,44.0,30.33,ESE,114,0.0,0.0,96,0.00,CLR,,0.00,WeatherDisplay:10.37,2013-01-07 08:52:00,
2013-01-07 08:57:00,45.1,44.0,30.33,NNE,23,0.0,0.0,96,0.00,CLR,,0.00,WeatherDisplay:10.37,2013-01-07 08:57:00,
2013-01-07 09:02:00,45.2,44.1,30.33,NE,49,0.0,0.0,96,0.00,CLR,,0.00,WeatherDisplay:10.37,2013-01-07 09:02:00,
2013-01-07 09:07:00,45.2,44.1,30.33,NE,47,0.0,0.0,96,0.00,CLR,,0.00,WeatherDisplay:10.37,2013-01-07 09:07:00,
2013-01-07 09:12:00,45.3,44.2,30.33,ENE,74,0.0,0.0,96,0.00,CLR,,0.00,WeatherDisplay:10.37,2013-01-07 09:12:00,
2013-01-07 09:17:00,45.3,44.2,30.33,SSW,205,1.0,1.0,96,0.00,CLR,,0.00,WeatherDisplay:10.37,2013-01-07 09:17:00,
2013-01-07 09:22:00,45.4,44.3,30.33,ENE,66,0.0,0.0,96,0.00,CLR,,0.00,WeatherDisplay:10.37,2013-01-07 09:22:00,
2013-01-07 09:27:00,45.4,44.3,30.33,East,90,1.1,1.1,96,0.00,CLR,,0.00,WeatherDisplay:10.37,2013-01-07 09:27:00,
2013-01-07 09:32:00,45.4,44.3,30.33,NE,51,0.0,0.0,96,0.00,CLR,,0.00,WeatherDisplay:10.37,2013-01-07 09:32:00,
2013-01-07 09:37:00,45.5,44.4,30.33,WNW,295,1.1,0.0,96,0.00,CLR,,0.00,WeatherDisplay:10.37,2013-01-07 09:37:00,
2013-01-07 09:42:00,45.5,44.4,30.33,ESE,106,1.1,0.0,96,0.00,CLR,,0.00,WeatherDisplay:10.37,2013-01-07 09:42:00,
2013-01-07 09:47:00,45.5,44.4,30.33,SE,125,1.1,1.1,96,0.00,CLR,,0.00,WeatherDisplay:10.37,2013-01-07 09:47:00,
2013-01-07 09:52:00,45.5,44.4,30.33,ESE,122,1.1,0.0,96,0.00,CLR,,0.00,WeatherDisplay:10.37,2013-01-07 09:52:00,
2013-01-07 09:57:00,45.5,44.4,30.33,WSW,248,0.0,0.0,96,0.00,CLR,,0.00,WeatherDisplay:10.37,2013-01-07 09:57:00,
2013-01-07 10:02:00,45.6,44.5,30.33,WSW,248,0.0,0.0,96,0.00,CLR,,0.00,WeatherDisplay:10.37,2013-01-07 10:02:00,
2013-01-07 10:07:00,45.6,44.5,30.33,ENE,70,0.0,0.0,96,0.00,CLR,,0.00,WeatherDisplay:10.37,2013-01-07 10:07:00,
2013-01-07 10:12:00,45.7,44.6,30.33,ENE,68,0.0,0.0,96,0.00,CLR,,0.00,WeatherDisplay:10.37,2013-01-07 10:12:00,
2013-01-07 10:17:00,45.7,44.6,30.33,ENE,68,0.0,0.0,96,0.00,CLR,,0.00,WeatherDisplay:10.37,2013-01-07 10:17:00,
2013-01-07 10:22:00,45.8,44.7,30.33,ENE,78,1.1,0.0,96,0.00,CLR,,0.00,WeatherDisplay:10.37,2013-01-07 10:22:00,
2013-01-07 10:27:00,45.9,44.8,30.32,East,92,0.0,0.0,96,0.00,CLR,,0.00,WeatherDisplay:10.37,2013-01-07 10:27:00,
2013-01-07 10:32:00,46.0,44.9,30.32,East,86,1.1,0.0,96,0.00,CLR,,0.00,WeatherDisplay:10.37,2013-01-07 10:32:00,
2013-01-07 10:37:00,46.1,44.7,30.32,East,79,1.1,0.0,95,0.00,CLR,,0.00,WeatherDisplay:10.37,2013-01-07 10:37:00,
2013-01-07 10:42:00,46.1,44.7,30.32,SE,134,1.1,1.1,95,0.00,CLR,,0.00,WeatherDisplay:10.37,2013-01-07 10:42:00,
2013-01-07 10:47:00,46.2,44.8,30.32,East,99,0.0,0.0,95,0.00,CLR,,0.00,WeatherDisplay:10.37,2013-01-07 10:47:00,
2013-01-07 10:52:00,46.3,44.9,30.32,North,5,1.0,0.0,95,0.00,CLR,,0.00,WeatherDisplay:10.37,2013-01-07 10:52:00,
2013-01-07 10:57:00,46.3,44.9,30.32,North,6,0.0,0.0,95,0.00,CLR,,0.00,WeatherDisplay:10.37,2013-01-07 10:57:00,
2013-01-07 11:02:00,46.4,44.8,30.32,NE,51,0.0,0.0,94,0.00,CLR,,0.00,WeatherDisplay:10.37,2013-01-07 11:02:00,
2013-01-07 11:07:00,46.4,44.8,30.32,East,79,0.0,0.0,94,0.00,CLR,,0.00,WeatherDisplay:10.37,2013-01-07 11:07:00,
2013-01-07 11:12:00,46.4,44.8,30.32,NE,41,0.0,0.0,94,0.00,CLR,,0.00,WeatherDisplay:10.37,2013-01-07 11:12:00,
2013-01-07 11:17:00,46.4,44.8,30.32,West,278,0.0,0.0,94,0.00,CLR,,0.00,WeatherDisplay:10.37,2013-01-07 11:17:00,
2013-01-07 11:22:00,46.5,44.9,30.32,East,85,0.0,0.0,94,0.00,CLR,,0.00,WeatherDisplay:10.37,2013-01-07 11:22:00,
2013-01-07 11:27:00,46.7,45.1,30.32,ESE,105,0.0,0.0,94,0.00,CLR,,0.00,WeatherDisplay:10.37,2013-01-07 11:27:00,
2013-01-07 11:32:00,46.7,45.1,30.31,East,82,2.3,2.3,94,0.00,CLR,,0.00,WeatherDisplay:10.37,2013-01-07 11:32:00,
2013-01-07 11:37:00,46.7,45.1,30.31,East,86,1.1,0.0,94,0.00,CLR,,0.00,WeatherDisplay:10.37,2013-01-07 11:37:00,
2013-01-07 11:42:00,46.7,45.1,30.31,ENE,58,2.3,2.3,94,0.00,CLR,,0.00,WeatherDisplay:10.37,2013-01-07 11:42:00,
2013-01-07 11:47:00,46.8,45.2,30.31,NE,47,1.1,1.1,94,0.00,CLR,,0.00,WeatherDisplay:10.37,2013-01-07 11:47:00,
2013-01-07 11:52:00,46.9,45.3,30.31,East,86,2.3,2.3,94,0.00,CLR,,0.00,WeatherDisplay:10.37,2013-01-07 11:52:00,
2013-01-07 11:57:00,47.0,45.4,30.30,ENE,75,2.3,2.3,94,0.00,CLR,,0.00,WeatherDisplay:10.37,2013-01-07 11:57:00,
2013-01-07 12:02:00,47.1,45.2,30.30,East,91,1.1,1.1,93,0.00,CLR,,0.00,WeatherDisplay:10.37,2013-01-07 12:02:00,
2013-01-07 12:07:00,47.1,45.2,30.30,East,79,3.5,3.5,93,0.00,CLR,,0.00,WeatherDisplay:10.37,2013-01-07 12:07:00,
2013-01-07 12:12:00,47.1,45.2,30.30,ESE,108,0.0,0.0,93,0.00,CLR,,0.00,WeatherDisplay:10.37,2013-01-07 12:12:00,
2013-01-07 12:17:00,47.3,45.4,30.30,NE,56,1.1,1.1,93,0.00,CLR,,0.00,WeatherDisplay:10.37,2013-01-07 12:17:00,
2013-01-07 12:22:00,47.3,45.4,30.30,East,83,3.5,3.5,93,0.00,CLR,,0.00,WeatherDisplay:10.37,2013-01-07 12:22:00,
2013-01-07 12:27:00,47.3,45.4,30.29,East,82,0.0,0.0,93,0.00,CLR,,0.00,WeatherDisplay:10.37,2013-01-07 12:27:00,
2013-01-07 12:32:00,47.4,45.2,30.29,SE,145,2.3,2.3,92,0.00,CLR,,0.00,WeatherDisplay:10.37,2013-01-07 12:32:00,
2013-01-07 12:37:00,47.4,45.2,30.29,East,79,2.3,2.3,92,0.00,CLR,,0.00,WeatherDisplay:10.37,2013-01-07 12:37:00,
2013-01-07 12:42:00,47.5,45.3,30.29,ENE,77,1.1,1.1,92,0.00,CLR,,0.00,WeatherDisplay:10.37,2013-01-07 12:42:00,
2013-01-07 12:47:00,47.6,45.4,30.29,NE,35,1.1,1.1,92,0.00,CLR,,0.00,WeatherDisplay:10.37,2013-01-07 12:47:00,
2013-01-07 12:52:00,47.6,45.4,30.29,SW,231,2.3,2.3,92,0.00,CLR,,0.00,WeatherDisplay:10.37,2013-01-07 12:52:00,
2013-01-07 12:57:00,47.7,45.5,30.29,East,83,1.1,1.1,92,0.00,CLR,,0.00,WeatherDisplay:10.37,2013-01-07 12:57:00,
2013-01-07 13:02:00,47.8,45.6,30.29,South,177,0.0,0.0,92,0.00,CLR,,0.00,WeatherDisplay:10.37,2013-01-07 13:02:00,
2013-01-07 13:07:00,47.9,45.7,30.29,NNW,333,1.0,1.0,92,0.00,CLR,,0.00,WeatherDisplay:10.37,2013-01-07 13:07:00,
2013-01-07 13:12:00,47.9,45.7,30.29,WSW,239,2.3,2.3,92,0.00,CLR,,0.00,WeatherDisplay:10.37,2013-01-07 13:12:00,
2013-01-07 13:17:00,47.9,45.7,30.29,NE,49,1.1,0.0,92,0.00,CLR,,0.00,WeatherDisplay:10.37,2013-01-07 13:17:00,
2013-01-07 13:22:00,47.8,45.6,30.29,NW,315,1.1,1.1,92,0.00,CLR,,0.00,WeatherDisplay:10.37,2013-01-07 13:22:00,
2013-01-07 13:27:00,47.8,45.6,30.29,NE,56,2.3,2.3,92,0.00,CLR,,0.00,WeatherDisplay:10.37,2013-01-07 13:27:00,
2013-01-07 13:32:00,47.8,45.6,30.29,SSW,204,3.0,3.0,92,0.00,CLR,,0.00,WeatherDisplay:10.37,2013-01-07 13:32:00,
2013-01-07 13:37:00,47.7,45.5,30.28,ENE,58,2.3,2.3,92,0.00,CLR,,0.00,WeatherDisplay:10.37,2013-01-07 13:37:00,
2013-01-07 13:42:00,47.7,45.5,30.29,NNE,33,1.1,1.1,92,0.00,CLR,,0.00,WeatherDisplay:10.37,2013-01-07 13:42:00,
2013-01-07 13:47:00,47.7,45.5,30.28,NE,56,2.3,2.3,92,0.00,CLR,,0.00,WeatherDisplay:10.37,2013-01-07 13:47:00,
2013-01-07 13:52:00,47.6,45.4,30.28,NW,315,2.3,2.3,92,0.00,CLR,,0.00,WeatherDisplay:10.37,2013-01-07 13:52:00,
2013-01-07 13:57:00,47.6,45.4,30.28,East,80,1.1,1.1,92,0.00,CLR,,0.00,WeatherDisplay:10.37,2013-01-07 13:57:00,
2013-01-07 14:02:00,47.5,45.3,30.28,ENE,66,1.0,1.0,92,0.00,CLR,,0.00,WeatherDisplay:10.37,2013-01-07 14:02:00,
2013-01-07 14:07:00,47.5,45.3,30.28,East,93,2.3,2.3,92,0.00,CLR,,0.00,WeatherDisplay:10.37,2013-01-07 14:07:00,
2013-01-07 14:12:00,47.5,45.3,30.28,North,351,2.3,2.3,92,0.00,CLR,,0.00,WeatherDisplay:10.37,2013-01-07 14:12:00,
2013-01-07 14:17:00,47.6,45.4,30.28,East,85,2.3,2.3,92,0.00,CLR,,0.00,WeatherDisplay:10.37,2013-01-07 14:17:00,
2013-01-07 14:22:00,47.6,45.4,30.28,ENE,62,1.1,1.1,92,0.00,CLR,,0.00,WeatherDisplay:10.37,2013-01-07 14:22:00,
2013-01-07 14:27:00,47.7,45.5,30.27,ESE,120,1.1,1.1,92,0.00,CLR,,0.00,WeatherDisplay:10.37,2013-01-07 14:27:00,
2013-01-07 14:32:00,47.7,45.5,30.27,ENE,77,1.1,1.1,92,0.00,CLR,,0.00,WeatherDisplay:10.37,2013-01-07 14:32:00,
2013-01-07 14:37:00,47.7,45.5,30.27,ESE,103,1.1,1.1,92,0.00,CLR,,0.00,WeatherDisplay:10.37,2013-01-07 14:37:00,
2013-01-07 14:42:00,47.8,45.6,30.27,ENE,72,2.3,2.3,92,0.00,CLR,,0.00,WeatherDisplay:10.37,2013-01-07 14:42:00,
2013-01-07 14:47:00,47.8,45.6,30.27,ENE,72,1.1,0.0,92,0.00,CLR,,0.00,WeatherDisplay:10.37,2013-01-07 14:47:00,
2013-01-07 14:52:00,47.7,45.5,30.27,East,98,1.1,1.1,92,0.00,CLR,,0.00,WeatherDisplay:10.37,2013-01-07 14:52:00,
2013-01-07 14:57:00,47.7,45.5,30.27,SSE,159,1.1,1.1,92,0.00,CLR,,0.00,WeatherDisplay:10.37,2013-01-07 14:57:00,
2013-01-07 15:02:00,47.7,45.5,30.27,East,94,1.1,1.1,92,0.00,CLR,,0.00,WeatherDisplay:10.37,2013-01-07 15:02:00,
2013-01-07 15:07:00,47.7,45.5,30.27,WSW,238,0.0,0.0,92,0.00,CLR,,0.00,WeatherDisplay:10.37,2013-01-07 15:07:00,
2013-01-07 15:12:00,47.6,45.4,30.27,ESE,107,2.3,2.3,92,0.00,CLR,,0.00,WeatherDisplay:10.37,2013-01-07 15:12:00,
2013-01-07 15:17:00,47.6,45.4,30.27,NE,47,1.1,1.1,92,0.00,CLR,,0.00,WeatherDisplay:10.37,2013-01-07 15:17:00,
2013-01-07 15:22:00,47.5,45.3,30.27,East,83,1.1,1.1,92,0.00,CLR,,0.00,WeatherDisplay:10.37,2013-01-07 15:22:00,
2013-01-07 15:27:00,47.5,45.3,30.27,East,90,1.1,1.1,92,0.00,CLR,,0.00,WeatherDisplay:10.37,2013-01-07 15:27:00,
2013-01-07 15:32:00,47.5,45.3,30.27,SW,233,2.3,2.3,92,0.00,CLR,,0.00,WeatherDisplay:10.37,2013-01-07 15:32:00,
2013-01-07 15:37:00,47.5,45.3,30.27,ENE,63,1.1,1.1,92,0.00,CLR,,0.00,WeatherDisplay:10.37,2013-01-07 15:37:00,
2013-01-07 15:42:00,47.4,45.2,30.27,ENE,68,1.1,1.1,92,0.00,CLR,,0.00,WeatherDisplay:10.37,2013-01-07 15:42:00,
2013-01-07 15:47:00,47.4,45.2,30.27,ESE,110,1.1,1.1,92,0.00,CLR,,0.00,WeatherDisplay:10.37,2013-01-07 15:47:00,
2013-01-07 15:52:00,47.3,45.1,30.27,NE,55,3.5,3.5,92,0.00,CLR,,0.00,WeatherDisplay:10.37,2013-01-07 15:52:00,
2013-01-07 15:57:00,47.3,45.1,30.27,North,349,1.1,1.1,92,0.00,CLR,,0.00,WeatherDisplay:10.37,2013-01-07 15:57:00,
2013-01-07 16:02:00,47.3,45.1,30.27,East,86,1.1,1.1,92,0.00,CLR,,0.00,WeatherDisplay:10.37,2013-01-07 16:02:00,
2013-01-07 16:07:00,47.3,45.1,30.27,ENE,70,2.3,2.3,92,0.00,CLR,,0.00,WeatherDisplay:10.37,2013-01-07 16:07:00,
2013-01-07 16:12:00,47.2,45.0,30.26,ENE,72,2.3,2.3,92,0.00,CLR,,0.00,WeatherDisplay:10.37,2013-01-07 16:12:00,
2013-01-07 16:17:00,47.1,44.9,30.27,ENE,68,1.1,1.1,92,0.00,CLR,,0.00,WeatherDisplay:10.37,2013-01-07 16:17:00,
2013-01-07 16:22:00,47.1,45.2,30.27,ENE,67,2.0,2.0,93,0.00,CLR,,0.00,WeatherDisplay:10.37,2013-01-07 16:22:00,
2013-01-07 16:27:00,47.0,45.1,30.27,ENE,71,1.1,0.0,93,0.00,CLR,,0.00,WeatherDisplay:10.37,2013-01-07 16:27:00,
2013-01-07 16:32:00,47.0,45.1,30.27,East,93,2.3,2.3,93,0.00,CLR,,0.00,WeatherDisplay:10.37,2013-01-07 16:32:00,
2013-01-07 16:37:00,46.9,45.0,30.26,East,82,1.1,1.1,93,0.00,CLR,,0.00,WeatherDisplay:10.37,2013-01-07 16:37:00,
2013-01-07 16:42:00,46.9,45.0,30.26,ENE,61,2.3,2.3,93,0.00,CLR,,0.00,WeatherDisplay:10.37,2013-01-07 16:42:00,
2013-01-07 16:47:00,46.8,44.9,30.26,ENE,68,0.0,0.2,93,0.00,CLR,,0.00,WeatherDisplay:10.37,2013-01-07 16:47:00,
2013-01-07 16:52:00,46.8,44.9,30.26,West,280,1.1,1.1,93,0.00,CLR,,0.00,WeatherDisplay:10.37,2013-01-07 16:52:00,
2013-01-07 16:57:00,46.7,44.8,30.27,ENE,64,1.1,0.0,93,0.00,CLR,,0.00,WeatherDisplay:10.37,2013-01-07 16:57:00,
2013-01-07 17:02:00,46.8,44.9,30.27,SSE,151,0.0,0.0,93,0.00,CLR,,0.00,WeatherDisplay:10.37,2013-01-07 17:02:00,
2013-01-07 17:07:00,46.7,45.1,30.27,ESE,110,1.1,1.1,94,0.00,CLR,,0.00,WeatherDisplay:10.37,2013-01-07 17:07:00,
2013-01-07 17:12:00,46.7,45.1,30.27,ENE,76,1.1,1.1,94,0.00,CLR,,0.00,WeatherDisplay:10.37,2013-01-07 17:12:00,
2013-01-07 17:17:00,46.8,45.2,30.27,NE,55,1.0,0.0,94,0.00,CLR,,0.00,WeatherDisplay:10.37,2013-01-07 17:17:00,
2013-01-07 17:22:00,46.8,45.2,30.27,NE,54,1.1,0.0,94,0.00,CLR,,0.00,WeatherDisplay:10.37,2013-01-07 17:22:00,
2013-01-07 17:27:00,46.7,45.1,30.27,NNE,33,1.1,0.0,94,0.00,CLR,,0.00,WeatherDisplay:10.37,2013-01-07 17:27:00,
2013-01-07 17:32:00,46.8,45.2,30.27,ENE,64,1.1,0.0,94,0.00,CLR,,0.00,WeatherDisplay:10.37,2013-01-07 17:32:00,
2013-01-07 17:37:00,46.8,45.2,30.27,ENE,68,1.1,1.1,94,0.00,CLR,,0.00,WeatherDisplay:10.37,2013-01-07 17:37:00,
2013-01-07 17:42:00,46.8,45.2,30.27,ENE,63,1.1,0.0,94,0.00,CLR,,0.00,WeatherDisplay:10.37,2013-01-07 17:42:00,
2013-01-07 17:47:00,46.8,45.2,30.27,WSW,250,1.1,1.1,94,0.00,CLR,,0.00,WeatherDisplay:10.37,2013-01-07 17:47:00,
2013-01-07 17:52:00,46.8,45.2,30.27,East,95,1.1,1.1,94,0.00,CLR,,0.00,WeatherDisplay:10.37,2013-01-07 17:52:00,
2013-01-07 17:57:00,46.8,45.2,30.26,ENE,66,2.3,2.3,94,0.00,CLR,,0.00,WeatherDisplay:10.37,2013-01-07 17:57:00,
2013-01-07 18:02:00,46.9,45.3,30.26,ENE,77,0.0,0.0,94,0.00,CLR,,0.00,WeatherDisplay:10.37,2013-01-07 18:02:00,
2013-01-07 18:07:00,46.8,45.2,30.26,WSW,254,1.0,1.0,94,0.00,CLR,,0.00,WeatherDisplay:10.37,2013-01-07 18:07:00,
2013-01-07 18:12:00,46.8,45.2,30.26,East,95,1.1,1.1,94,0.00,CLR,,0.00,WeatherDisplay:10.37,2013-01-07 18:12:00,
2013-01-07 18:17:00,46.9,45.3,30.26,ENE,63,1.1,1.1,94,0.00,CLR,,0.00,WeatherDisplay:10.37,2013-01-07 18:17:00,
2013-01-07 18:22:00,46.9,45.3,30.26,ENE,58,2.3,0.0,94,0.00,CLR,,0.00,WeatherDisplay:10.37,2013-01-07 18:22:00,
2013-01-07 18:27:00,46.9,45.3,30.26,NE,55,1.1,0.0,94,0.00,CLR,,0.00,WeatherDisplay:10.37,2013-01-07 18:27:00,
2013-01-07 18:32:00,47.0,45.4,30.27,NNW,333,1.1,1.1,94,0.00,CLR,,0.00,WeatherDisplay:10.37,2013-01-07 18:32:00,
2013-01-07 18:37:00,47.0,45.4,30.26,ENE,72,1.1,1.1,94,0.00,CLR,,0.00,WeatherDisplay:10.37,2013-01-07 18:37:00,
2013-01-07 18:42:00,47.0,45.4,30.26,ENE,72,1.1,1.1,94,0.00,CLR,,0.00,WeatherDisplay:10.37,2013-01-07 18:42:00,
2013-01-07 18:47:00,47.1,45.5,30.26,ENE,72,2.0,2.0,94,0.00,CLR,,0.00,WeatherDisplay:10.37,2013-01-07 18:47:00,
2013-01-07 18:52:00,47.1,45.5,30.26,ENE,72,1.1,1.1,94,0.00,CLR,,0.00,WeatherDisplay:10.37,2013-01-07 18:52:00,
2013-01-07 18:57:00,47.1,45.5,30.26,ENE,68,2.3,0.0,94,0.00,CLR,,0.00,WeatherDisplay:10.37,2013-01-07 18:57:00,
2013-01-07 19:02:00,47.2,45.6,30.26,ESE,108,0.0,0.0,94,0.00,CLR,,0.00,WeatherDisplay:10.37,2013-01-07 19:02:00,
2013-01-07 19:07:00,47.2,45.6,30.26,NE,43,2.3,2.3,94,0.00,CLR,,0.00,WeatherDisplay:10.37,2013-01-07 19:07:00,
2013-01-07 19:12:00,47.3,45.7,30.26,ENE,73,1.1,0.0,94,0.00,CLR,,0.00,WeatherDisplay:10.37,2013-01-07 19:12:00,
2013-01-07 19:17:00,47.3,45.7,30.26,NW,316,1.1,1.1,94,0.00,CLR,,0.00,WeatherDisplay:10.37,2013-01-07 19:17:00,
2013-01-07 19:22:00,47.3,45.7,30.26,NE,56,1.1,0.0,94,0.00,CLR,,0.00,WeatherDisplay:10.37,2013-01-07 19:22:00,
2013-01-07 19:27:00,47.4,45.8,30.26,East,86,0.0,0.4,94,0.00,CLR,,0.00,WeatherDisplay:10.37,2013-01-07 19:27:00,
2013-01-07 19:32:00,47.4,45.8,30.26,NNE,19,0.0,0.0,94,0.00,CLR,,0.00,WeatherDisplay:10.37,2013-01-07 19:32:00,
2013-01-07 19:37:00,47.5,45.9,30.26,ENE,62,0.0,0.0,94,0.00,CLR,,0.00,WeatherDisplay:10.37,2013-01-07 19:37:00,
2013-01-07 19:42:00,47.5,45.9,30.26,North,354,0.0,0.2,94,0.00,CLR,,0.00,WeatherDisplay:10.37,2013-01-07 19:42:00,
2013-01-07 19:47:00,47.5,45.9,30.26,SE,145,1.1,1.1,94,0.00,CLR,,0.00,WeatherDisplay:10.37,2013-01-07 19:47:00,
2013-01-07 19:52:00,47.6,46.0,30.26,ENE,72,1.1,1.1,94,0.00,CLR,,0.00,WeatherDisplay:10.37,2013-01-07 19:52:00,
2013-01-07 19:57:00,47.6,46.0,30.26,East,82,1.1,1.1,94,0.00,CLR,,0.00,WeatherDisplay:10.37,2013-01-07 19:57:00,
2013-01-07 20:02:00,47.7,46.1,30.26,NE,49,1.1,1.1,94,0.00,CLR,,0.00,WeatherDisplay:10.37,2013-01-07 20:02:00,
2013-01-07 20:07:00,47.7,46.1,30.26,West,267,1.0,1.0,94,0.00,CLR,,0.00,WeatherDisplay:10.37,2013-01-07 20:07:00,
2013-01-07 20:12:00,47.7,46.1,30.26,ENE,77,1.1,0.0,94,0.00,CLR,,0.00,WeatherDisplay:10.37,2013-01-07 20:12:00,
2013-01-07 20:17:00,47.8,46.2,30.26,East,84,1.1,1.1,94,0.00,CLR,,0.00,WeatherDisplay:10.37,2013-01-07 20:17:00,
2013-01-07 20:19:00,47.8,46.2,30.26,East,83,0.0,0.0,94,0.00,CLR,,0.00,WeatherDisplay:10.37,2013-01-07 20:19:00,
2013-01-07 20:24:00,47.8,46.2,30.26,SE,146,1.1,1.1,94,0.00,CLR,,0.00,WeatherDisplay:10.37,2013-01-07 20:24:00,
2013-01-07 20:29:00,47.9,46.3,30.26,ENE,58,1.1,1.1,94,0.00,CLR,,0.00,WeatherDisplay:10.37,2013-01-07 20:29:00,
2013-01-07 20:34:00,47.9,46.3,30.26,NW,315,1.1,1.1,94,0.00,CLR,,0.00,WeatherDisplay:10.37,2013-01-07 20:34:00,
2013-01-07 20:39:00,47.9,46.3,30.26,SE,127,2.3,2.3,94,0.00,CLR,,0.00,WeatherDisplay:10.37,2013-01-07 20:39:00,
2013-01-07 20:44:00,47.9,46.3,30.26,ENE,65,1.1,1.1,94,0.00,CLR,,0.00,WeatherDisplay:10.37,2013-01-07 20:44:00,
2013-01-07 20:49:00,48.0,46.4,30.26,ENE,60,1.1,1.1,94,0.00,CLR,,0.00,WeatherDisplay:10.37,2013-01-07 20:49:00,
2013-01-07 20:54:00,48.0,46.4,30.26,WNW,302,1.1,0.0,94,0.00,CLR,,0.00,WeatherDisplay:10.37,2013-01-07 20:54:00,
2013-01-07 20:59:00,48.0,46.4,30.26,ENE,63,1.1,1.1,94,0.00,CLR,,0.00,WeatherDisplay:10.37,2013-01-07 20:59:00,
2013-01-07 21:04:00,48.0,46.1,30.26,East,81,1.1,1.1,93,0.00,CLR,,0.00,WeatherDisplay:10.37,2013-01-07 21:04:00,
2013-01-07 21:09:00,48.0,46.4,30.25,East,83,0.0,0.0,94,0.00,CLR,,0.00,WeatherDisplay:10.37,2013-01-07 21:09:00,
2013-01-07 21:14:00,48.1,46.2,30.25,ENE,76,1.1,1.1,93,0.00,CLR,,0.00,WeatherDisplay:10.37,2013-01-07 21:14:00,
2013-01-07 21:19:00,48.1,46.2,30.25,ENE,72,0.0,0.0,93,0.00,CLR,,0.00,WeatherDisplay:10.37,2013-01-07 21:19:00,
2013-01-07 21:24:00,48.1,46.2,30.25,NE,49,1.1,1.1,93,0.00,CLR,,0.00,WeatherDisplay:10.37,2013-01-07 21:24:00,
2013-01-07 21:29:00,48.1,46.2,30.25,East,86,1.1,1.1,93,0.00,CLR,,0.00,WeatherDisplay:10.37,2013-01-07 21:29:00,
2013-01-07 21:34:00,48.2,46.3,30.25,NE,51,1.1,1.1,93,0.00,CLR,,0.00,WeatherDisplay:10.37,2013-01-07 21:34:00,
2013-01-07 21:39:00,48.3,46.1,30.25,ENE,72,1.1,0.0,92,0.00,CLR,,0.00,WeatherDisplay:10.37,2013-01-07 21:39:00,
2013-01-07 21:44:00,48.3,46.1,30.26,NE,55,1.1,1.1,92,0.00,CLR,,0.00,WeatherDisplay:10.37,2013-01-07 21:44:00,
2013-01-07 21:49:00,48.3,46.1,30.26,SW,226,2.3,2.3,92,0.00,CLR,,0.00,WeatherDisplay:10.37,2013-01-07 21:49:00,
2013-01-07 21:54:00,48.3,46.1,30.26,NNW,333,0.0,0.0,92,0.00,CLR,,0.00,WeatherDisplay:10.37,2013-01-07 21:54:00,
2013-01-07 21:59:00,48.4,46.2,30.26,NW,309,0.0,0.0,92,0.00,CLR,,0.00,WeatherDisplay:10.37,2013-01-07 21:59:00,
2013-01-07 22:04:00,48.4,46.2,30.25,WSW,240,2.3,2.3,92,0.00,CLR,,0.00,WeatherDisplay:10.37,2013-01-07 22:04:00,
2013-01-07 22:09:00,48.3,46.1,30.25,NE,46,0.0,0.0,92,0.00,CLR,,0.00,WeatherDisplay:10.37,2013-01-07 22:09:00,
2013-01-07 22:14:00,48.3,46.1,30.25,North,11,0.0,0.0,92,0.00,CLR,,0.00,WeatherDisplay:10.37,2013-01-07 22:14:00,
2013-01-07 22:19:00,48.3,46.1,30.25,SSE,165,0.0,0.0,92,0.00,CLR,,0.00,WeatherDisplay:10.37,2013-01-07 22:19:00,
2013-01-07 22:24:00,48.3,46.1,30.25,ENE,68,1.1,1.1,92,0.00,CLR,,0.00,WeatherDisplay:10.37,2013-01-07 22:24:00,
2013-01-07 22:29:00,48.3,46.1,30.25,SE,125,0.0,0.1,92,0.00,CLR,,0.00,WeatherDisplay:10.37,2013-01-07 22:29:00,
2013-01-07 22:34:00,48.3,46.1,30.25,East,96,0.0,0.0,92,0.00,CLR,,0.00,WeatherDisplay:10.37,2013-01-07 22:34:00,
2013-01-07 22:39:00,48.3,46.1,30.25,East,79,1.1,1.1,92,0.00,CLR,,0.00,WeatherDisplay:10.37,2013-01-07 22:39:00,
2013-01-07 22:44:00,48.3,46.1,30.25,SE,136,1.1,1.1,92,0.00,CLR,,0.00,WeatherDisplay:10.37,2013-01-07 22:44:00,
2013-01-07 22:49:00,48.3,46.1,30.25,ESE,107,1.1,1.1,92,0.00,CLR,,0.00,WeatherDisplay:10.37,2013-01-07 22:49:00,
2013-01-07 22:54:00,48.3,46.1,30.25,ENE,73,1.1,1.1,92,0.00,CLR,,0.00,WeatherDisplay:10.37,2013-01-07 22:54:00,
2013-01-07 22:59:00,48.3,46.1,30.25,SSW,211,1.1,1.1,92,0.00,CLR,,0.00,WeatherDisplay:10.37,2013-01-07 22:59:00,
2013-01-07 23:04:00,48.3,46.1,30.25,ENE,76,2.3,2.3,92,0.00,CLR,,0.00,WeatherDisplay:10.37,2013-01-07 23:04:00,
2013-01-07 23:09:00,48.3,46.1,30.25,ESE,103,1.1,1.1,92,0.00,CLR,,0.00,WeatherDisplay:10.37,2013-01-07 23:09:00,
2013-01-07 23:14:00,48.3,46.1,30.25,ENE,77,1.1,1.1,92,0.00,CLR,,0.00,WeatherDisplay:10.37,2013-01-07 23:14:00,
2013-01-07 23:19:00,48.3,46.1,30.25,West,281,0.0,0.0,92,0.00,CLR,,0.00,WeatherDisplay:10.37,2013-01-07 23:19:00,
2013-01-07 23:24:00,48.3,46.1,30.25,East,86,0.0,0.0,92,0.00,CLR,,0.00,WeatherDisplay:10.37,2013-01-07 23:24:00,
2013-01-07 23:29:00,48.4,46.2,30.25,East,80,1.1,1.1,92,0.00,CLR,,0.00,WeatherDisplay:10.37,2013-01-07 23:29:00,
2013-01-07 23:34:00,48.4,45.9,30.25,ENE,75,1.1,1.1,91,0.00,CLR,,0.00,WeatherDisplay:10.37,2013-01-07 23:34:00,
2013-01-07 23:39:00,48.4,46.2,30.25,ENE,58,1.1,1.1,92,0.00,CLR,,0.00,WeatherDisplay:10.37,2013-01-07 23:39:00,
2013-01-07 23:44:00,48.5,46.0,30.25,SE,131,0.0,0.0,91,0.00,CLR,,0.00,WeatherDisplay:10.37,2013-01-07 23:44:00,
2013-01-07 23:49:00,48.4,45.9,30.25,SSE,158,0.0,0.0,91,0.00,CLR,,0.00,WeatherDisplay:10.37,2013-01-07 23:49:00,
2013-01-07 23:54:00,48.4,46.2,30.25,SSE,158,0.0,0.0,92,0.00,CLR,,0.00,WeatherDisplay:10.37,2013-01-07 23:54:00,
2013-01-07 23:59:00,48.4,46.2,30.25,East,82,1.1,1.1,92,0.00,CLR,,0.00,WeatherDisplay:10.37,2013-01-07 23:59:00,